Accueil
METAR-TAF:

METAR-TAF

Aéroports :

Aéroport de Dortmund

Dortmund, Allemagne

latitude: 51-31N, longitude: 007-37E, altitude: 127 m

Observation

Le bulletin a été fait il y a 29 minutes, à 15:50 UTC
Vent 6 kt de nord/nord-est, variant entre nord et est/nord-est
Température 5°C
Humidité 38%
Pression 1029 hPa
Visibilité 10 km ou plus
pas de nuages en-dessous de 1500 mètres et pas de cumulonimbus.

METAR: EDLW 051550Z 03006KT 360V070 CAVOK 05/M08 Q1029

Heure: 17:19 (16:19 UTC)

Prévision

Le bulletin a été fait il y a 5 heures et 19 minutes, à 11:00 UTC
Prévision valable du 05 à 12 UTC au 06 à 12 UTC
Vent 7 kt de nord-est
Visibilité 10 km ou plus
Quelques nuages à une hauteur de 2000 ft
Evoluant progressivement
du 05 à 17 UTC au 05 à 19 UTC
Vent 3 kt de direction variable

TAF: EDLW 051100Z 0512/0612 04007KT 9999 FEW020 BECMG 0517/0519 VRB03KT

Observations et prévisions météorologiques de plus de 4000 aéroports (messages METAR et TAF).

Les stations disponibles sont représentées par des disques jaunes et rouges sur la carte.

Passer la souris dessus pour voir le nom de la station.

Cliquer dessus pour voir les observations et prévisions météorologiques.

Pour changer de carte: cliquez sur les boutons verts avec une croix noire pour zoomer, sur le bouton vert avec un tiret pour effectuer un zoom arrière, ou sur les flèches vertes pour les cartes adjacentes.


METAR-TAF: